createdAt,value
2019-01-13T00:02:13.942Z,3.40
2019-01-13T00:04:44.248Z,3.83
2019-01-13T00:07:15.710Z,3.53
2019-01-13T00:09:46.044Z,3.30
2019-01-13T00:12:19.841Z,3.63
2019-01-13T00:14:48.824Z,3.40
2019-01-13T00:17:19.247Z,3.50
2019-01-13T00:19:50.452Z,3.70
2019-01-13T00:22:25.449Z,3.53
2019-01-13T00:24:56.043Z,5.30
2019-01-13T00:27:26.989Z,3.50
2019-01-13T00:29:58.789Z,3.40
2019-01-13T00:32:34.158Z,3.40
2019-01-13T00:35:09.065Z,3.60
2019-01-13T00:37:38.961Z,9.53
2019-01-13T00:40:15.039Z,3.40
2019-01-13T00:42:45.131Z,3.30
2019-01-13T00:45:16.614Z,3.50
2019-01-13T00:47:47.047Z,3.43
2019-01-13T00:50:28.476Z,3.33
2019-01-13T00:53:02.373Z,3.40
2019-01-13T00:55:35.032Z,3.43
2019-01-13T00:58:06.386Z,3.30
2019-01-13T01:00:38.478Z,4.40
2019-01-13T01:03:12.558Z,3.57
2019-01-13T01:05:46.382Z,3.80
2019-01-13T01:08:24.835Z,4.17
2019-01-13T01:10:58.675Z,4.43
2019-01-13T01:13:29.999Z,3.80
2019-01-13T01:16:00.056Z,4.12
2019-01-13T01:18:30.779Z,4.00
2019-01-13T01:21:01.613Z,3.67
2019-01-13T01:23:32.426Z,3.57
2019-01-13T01:26:03.272Z,3.83
2019-01-13T01:28:40.078Z,3.50
2019-01-13T01:31:10.685Z,3.40
2019-01-13T01:33:41.208Z,3.30
2019-01-13T01:36:11.315Z,3.80
2019-01-13T01:38:43.154Z,3.40
2019-01-13T01:41:14.764Z,3.70
2019-01-13T01:43:45.192Z,3.60
2019-01-13T01:46:19.225Z,3.70
2019-01-13T01:48:50.200Z,3.60
2019-01-13T01:51:25.254Z,3.70
2019-01-13T01:54:03.757Z,3.70
2019-01-13T01:56:35.586Z,3.50
2019-01-13T01:59:06.728Z,3.70
2019-01-13T02:01:36.694Z,5.03
2019-01-13T02:04:07.962Z,4.63
2019-01-13T02:06:53.327Z,4.50
2019-01-13T02:09:30.906Z,4.63
2019-01-13T02:12:01.188Z,4.50
2019-01-13T02:14:31.579Z,5.60
2019-01-13T02:17:02.305Z,5.70
2019-01-13T02:19:38.605Z,7.07
2019-01-13T02:22:11.570Z,4.70
2019-01-13T02:24:44.222Z,5.00
2019-01-13T02:27:15.306Z,5.23
2019-01-13T02:29:54.121Z,5.53
2019-01-13T02:32:24.268Z,6.73
2019-01-13T02:34:54.759Z,5.87
2019-01-13T02:37:26.634Z,5.93
2019-01-13T02:39:59.961Z,6.80
2019-01-13T02:42:41.431Z,8.80
2019-01-13T02:45:17.641Z,6.63
2019-01-13T02:47:48.164Z,6.50
2019-01-13T02:50:21.092Z,10.10
2019-01-13T02:53:01.304Z,6.62
2019-01-13T02:55:31.629Z,7.70
2019-01-13T02:58:01.688Z,8.47
2019-01-13T03:00:34.132Z,8.70
2019-01-13T03:03:04.238Z,8.17
2019-01-13T03:05:35.120Z,7.12
2019-01-13T03:08:06.355Z,7.47
2019-01-13T03:10:41.479Z,10.50
2019-01-13T03:13:11.915Z,8.20
2019-01-13T03:15:48.150Z,8.10
2019-01-13T03:18:21.098Z,7.50
2019-01-13T03:20:52.331Z,8.53
2019-01-13T03:23:25.876Z,8.27
2019-01-13T03:25:59.684Z,8.27
2019-01-13T03:28:30.507Z,8.30
2019-01-13T03:31:12.271Z,8.80
2019-01-13T03:33:41.605Z,10.07
2019-01-13T03:36:14.558Z,9.23
2019-01-13T03:38:48.052Z,9.17
2019-01-13T03:41:19.315Z,8.90
2019-01-13T03:43:49.444Z,8.20
2019-01-13T03:46:21.868Z,8.83
2019-01-13T03:49:19.329Z,9.67
2019-01-13T03:51:50.202Z,8.67
2019-01-13T03:54:20.059Z,10.97
2019-01-13T03:57:00.771Z,8.47
2019-01-13T03:59:31.673Z,8.20
2019-01-13T04:02:02.299Z,10.07
2019-01-13T04:04:37.185Z,8.80
2019-01-13T04:07:07.815Z,9.03
2019-01-13T04:09:41.174Z,9.33
2019-01-13T04:12:15.840Z,7.97
2019-01-13T04:14:46.279Z,8.33
2019-01-13T04:17:18.519Z,9.17
2019-01-13T04:19:49.509Z,7.70
2019-01-13T04:22:20.194Z,9.83
2019-01-13T04:25:07.727Z,9.33
2019-01-13T04:27:47.452Z,7.23
2019-01-13T04:30:35.917Z,9.03
2019-01-13T04:33:05.131Z,7.70
2019-01-13T04:35:35.181Z,7.70
2019-01-13T04:38:05.603Z,8.87
2019-01-13T04:40:43.858Z,7.17
2019-01-13T04:43:26.566Z,10.90
2019-01-13T04:45:57.845Z,6.97
2019-01-13T04:48:28.122Z,8.07
2019-01-13T04:50:59.782Z,8.07
2019-01-13T04:53:33.520Z,7.60
2019-01-13T04:56:04.007Z,6.90
2019-01-13T04:58:35.032Z,7.07
2019-01-13T05:01:06.193Z,8.67
2019-01-13T05:03:59.252Z,9.63
2019-01-13T05:06:42.616Z,6.50
2019-01-13T05:09:13.801Z,7.50
2019-01-13T05:12:01.450Z,7.30
2019-01-13T05:14:33.763Z,7.87
2019-01-13T05:17:05.751Z,8.03
2019-01-13T05:19:35.767Z,7.33
2019-01-13T05:22:09.610Z,8.07
2019-01-13T05:24:37.952Z,7.60
2019-01-13T05:30:37.670Z,7.70
2019-01-13T05:33:08.231Z,6.37
2019-01-13T05:35:39.290Z,7.80
2019-01-13T05:38:37.205Z,7.53
2019-01-13T05:41:08.043Z,8.40
2019-01-13T05:43:39.200Z,8.07
2019-01-13T05:46:15.945Z,7.80
2019-01-13T05:48:48.858Z,5.75
2019-01-13T05:51:20.833Z,6.93
2019-01-13T05:53:52.119Z,6.10
2019-01-13T05:56:22.664Z,5.43
2019-01-13T05:59:15.493Z,8.43
2019-01-13T06:01:49.315Z,5.60
2019-01-13T06:04:22.884Z,5.70
2019-01-13T06:06:53.046Z,5.97
2019-01-13T06:09:24.438Z,5.93
2019-01-13T06:11:55.094Z,6.40
2019-01-13T06:14:28.955Z,5.90
2019-01-13T06:16:59.411Z,8.17
2019-01-13T06:19:29.247Z,7.93
2019-01-13T06:21:59.856Z,6.60
2019-01-13T06:24:31.024Z,7.77
2019-01-13T06:27:07.362Z,7.37
2019-01-13T06:29:38.689Z,8.87
2019-01-13T06:32:09.953Z,8.33
2019-01-13T06:34:46.255Z,9.13
2019-01-13T06:41:42.831Z,8.73
2019-01-13T06:44:43.245Z,8.50
2019-01-13T06:51:58.264Z,8.60
2019-01-13T07:02:14.297Z,7.43
2019-01-13T07:05:25.804Z,5.30
2019-01-13T07:08:03.253Z,5.37
2019-01-13T07:10:47.244Z,7.20
2019-01-13T07:13:31.134Z,5.10
2019-01-13T07:16:45.515Z,5.17
2019-01-13T07:19:44.465Z,4.53
2019-01-13T07:22:14.606Z,5.13
2019-01-13T07:24:44.159Z,5.40
2019-01-13T07:27:14.639Z,6.37
2019-01-13T07:29:44.709Z,4.37
2019-01-13T07:32:14.676Z,4.17
2019-01-13T07:34:45.030Z,4.40
2019-01-13T07:37:14.782Z,4.47
2019-01-13T07:39:46.483Z,5.40
2019-01-13T07:42:16.560Z,4.20
2019-01-13T07:44:46.365Z,4.03
2019-01-13T07:47:16.719Z,4.00
2019-01-13T07:49:46.679Z,4.33
2019-01-13T07:52:17.369Z,4.03
2019-01-13T07:54:53.026Z,4.70
2019-01-13T07:57:23.872Z,3.70
2019-01-13T07:59:53.968Z,4.27
2019-01-13T08:02:23.726Z,4.10
2019-01-13T08:04:53.443Z,4.00
2019-01-13T08:07:23.335Z,3.60
2019-01-13T08:09:53.865Z,4.07
2019-01-13T08:12:23.865Z,4.20
2019-01-13T08:14:54.307Z,3.50
2019-01-13T08:17:24.300Z,4.07
2019-01-13T08:19:54.906Z,3.80
2019-01-13T08:22:24.834Z,3.90
2019-01-13T08:24:54.874Z,4.60
2019-01-13T08:27:24.489Z,4.97
2019-01-13T08:37:57.832Z,3.90
2019-01-13T08:40:27.855Z,3.70
2019-01-13T08:42:58.106Z,3.70
2019-01-13T08:45:27.838Z,3.80
2019-01-13T08:47:58.512Z,3.60
2019-01-13T08:50:28.736Z,3.63
2019-01-13T08:52:58.753Z,4.00
2019-01-13T08:55:30.885Z,4.23
2019-01-13T08:58:02.150Z,4.53
2019-01-13T09:00:34.056Z,3.73
2019-01-13T09:03:05.447Z,5.33
2019-01-13T09:05:35.318Z,4.50
2019-01-13T09:08:08.370Z,5.13
2019-01-13T09:10:38.637Z,5.57
2019-01-13T09:13:09.324Z,3.87
2019-01-13T09:15:40.398Z,5.13
2019-01-13T09:18:10.514Z,4.60
2019-01-13T09:20:42.523Z,4.80
2019-01-13T09:23:13.323Z,8.17
2019-01-13T09:25:43.488Z,4.90
2019-01-13T09:28:13.961Z,6.43
2019-01-13T09:30:44.073Z,8.67
2019-01-13T09:33:13.900Z,6.73
2019-01-13T09:35:47.196Z,15.60
2019-01-13T09:38:16.811Z,10.13
2019-01-13T09:40:46.754Z,8.23
2019-01-13T09:43:24.334Z,16.40
2019-01-13T09:45:55.066Z,4.20
2019-01-13T09:48:26.567Z,5.10
2019-01-13T09:50:57.667Z,3.70
2019-01-13T09:53:28.260Z,8.63
2019-01-13T09:56:01.181Z,3.90
2019-01-13T09:58:31.236Z,4.43
2019-01-13T10:01:01.694Z,4.67
2019-01-13T10:03:31.520Z,8.63
2019-01-13T10:06:01.216Z,4.90
2019-01-13T10:08:32.884Z,6.07
2019-01-13T10:11:04.717Z,5.00
2019-01-13T10:13:34.981Z,4.93
2019-01-13T10:16:04.882Z,7.13
2019-01-13T10:18:34.772Z,3.90
2019-01-13T10:21:04.587Z,4.17
2019-01-13T10:23:36.394Z,7.83
2019-01-13T10:26:06.437Z,5.67
2019-01-13T10:28:36.550Z,5.90
2019-01-13T10:31:07.641Z,4.17
2019-01-13T10:33:37.801Z,5.50
2019-01-13T10:36:07.567Z,3.80
2019-01-13T10:38:40.508Z,4.90
2019-01-13T10:41:13.608Z,5.60
2019-01-13T10:43:46.964Z,4.10
2019-01-13T10:46:24.950Z,4.47
2019-01-13T10:48:55.153Z,5.90
2019-01-13T10:51:25.610Z,4.77
2019-01-13T10:53:57.928Z,4.17
2019-01-13T10:56:29.410Z,4.63
2019-01-13T10:58:59.623Z,5.10
2019-01-13T11:01:30.311Z,4.30
2019-01-13T11:04:00.988Z,5.97
2019-01-13T11:06:31.103Z,4.85
2019-01-13T11:09:14.049Z,4.70
2019-01-13T11:11:44.106Z,5.40
2019-01-13T11:14:14.040Z,6.40
2019-01-13T11:16:44.390Z,5.80
2019-01-13T11:19:14.688Z,5.10
2019-01-13T11:21:44.588Z,6.90
2019-01-13T11:24:14.780Z,7.33
2019-01-13T11:26:44.553Z,6.20
2019-01-13T11:29:14.064Z,5.60
2019-01-13T11:31:46.088Z,5.57
2019-01-13T11:34:17.286Z,6.30
2019-01-13T11:36:48.118Z,7.70
2019-01-13T11:39:24.138Z,8.80
2019-01-13T11:41:56.384Z,11.73
2019-01-13T11:44:26.569Z,12.40
2019-01-13T11:46:56.258Z,8.38
2019-01-13T11:49:26.399Z,5.40
2019-01-13T11:51:56.801Z,5.57
2019-01-13T11:54:27.056Z,7.50
2019-01-13T11:56:56.582Z,7.00
2019-01-13T11:59:26.242Z,8.47
2019-01-13T12:01:56.052Z,6.47
2019-01-13T12:04:25.797Z,6.77
2019-01-13T12:06:55.612Z,7.30
2019-01-13T12:09:25.923Z,6.73
2019-01-13T12:11:57.492Z,9.00
2019-01-13T12:14:33.425Z,6.97
2019-01-13T12:17:05.167Z,8.73
2019-01-13T12:19:35.857Z,11.00
2019-01-13T12:22:11.970Z,7.20
2019-01-13T12:24:43.612Z,7.57
2019-01-13T12:27:32.502Z,8.27
2019-01-13T12:30:23.017Z,6.53
2019-01-13T12:33:11.169Z,7.40
2019-01-13T12:35:38.223Z,5.30
2019-01-13T12:38:09.716Z,10.93
2019-01-13T12:40:43.695Z,11.00
2019-01-13T12:43:14.449Z,18.23
2019-01-13T12:45:46.701Z,10.60
2019-01-13T12:48:17.777Z,9.10
2019-01-13T12:50:48.254Z,16.47
2019-01-13T12:53:20.452Z,6.10
2019-01-13T12:55:50.470Z,8.77
2019-01-13T12:58:20.766Z,5.33
2019-01-13T13:00:50.527Z,4.97
2019-01-13T13:03:20.332Z,4.40
2019-01-13T13:05:50.202Z,5.77
2019-01-13T13:08:20.308Z,5.00
2019-01-13T13:10:54.435Z,4.00
2019-01-13T13:13:24.719Z,4.20
2019-01-13T13:15:55.151Z,4.53
2019-01-13T13:18:25.329Z,4.30
2019-01-13T13:20:56.716Z,4.73
2019-01-13T13:23:28.931Z,6.47
2019-01-13T13:25:58.983Z,6.60
2019-01-13T13:28:32.401Z,3.87
2019-01-13T13:31:02.138Z,4.20
2019-01-13T13:33:38.857Z,4.10
2019-01-13T13:36:11.006Z,4.63
2019-01-13T13:38:41.629Z,4.40
2019-01-13T13:41:12.535Z,4.00
2019-01-13T13:43:40.532Z,4.10
2019-01-13T13:46:11.112Z,4.17
2019-01-13T13:48:40.958Z,4.20
2019-01-13T13:51:11.153Z,4.27
2019-01-13T13:53:40.922Z,4.00
2019-01-13T13:56:10.337Z,5.03
2019-01-13T13:58:40.292Z,5.27
2019-01-13T14:01:10.059Z,4.13
2019-01-13T14:03:45.991Z,4.10
2019-01-13T14:06:15.392Z,4.40
2019-01-13T14:08:46.765Z,4.00
2019-01-13T14:11:21.580Z,4.10
2019-01-13T14:13:51.187Z,6.33
2019-01-13T14:16:23.634Z,4.90
2019-01-13T14:18:58.361Z,4.60
2019-01-13T14:21:29.635Z,4.40
2019-01-13T14:24:01.316Z,4.20
2019-01-13T14:26:59.630Z,4.03
2019-01-13T14:29:43.272Z,5.40
2019-01-13T14:32:19.652Z,3.85
2019-01-13T14:34:50.187Z,4.13
2019-01-13T14:37:20.847Z,4.77
2019-01-13T14:39:52.064Z,4.10
2019-01-13T14:42:24.982Z,6.13
2019-01-13T14:44:57.019Z,4.57
2019-01-13T14:47:27.622Z,3.80
2019-01-13T14:50:09.460Z,3.80
2019-01-13T14:52:50.671Z,3.70
2019-01-13T14:55:21.158Z,4.83
2019-01-13T14:57:51.732Z,4.10
2019-01-13T15:00:23.442Z,4.70
2019-01-13T15:02:53.496Z,4.30
2019-01-13T15:05:24.211Z,5.30
2019-01-13T15:07:57.680Z,7.33
2019-01-13T15:10:28.114Z,4.90
2019-01-13T15:13:00.421Z,4.10
2019-01-13T15:30:40.470Z,4.50
2019-01-13T15:33:17.233Z,5.10
2019-01-13T15:36:37.982Z,6.67
2019-01-13T15:42:37.669Z,4.13
2019-01-13T15:45:21.374Z,4.77
2019-01-13T15:47:59.733Z,4.40
2019-01-13T15:50:35.327Z,4.80
2019-01-13T15:53:18.547Z,4.90
2019-01-13T15:55:48.473Z,5.27
2019-01-13T15:58:25.027Z,5.37
2019-01-13T16:01:07.481Z,5.50
2019-01-13T16:03:41.114Z,4.40
2019-01-13T16:06:20.796Z,3.93
2019-01-13T16:09:11.250Z,4.90
2019-01-13T16:11:43.250Z,4.67
2019-01-13T16:14:19.896Z,4.27
2019-01-13T16:16:50.080Z,5.00
2019-01-13T16:19:20.555Z,4.80
2019-01-13T16:21:51.956Z,4.93
2019-01-13T16:24:22.565Z,5.03
2019-01-13T16:27:10.966Z,4.97
2019-01-13T16:29:33.686Z,4.87
2019-01-13T16:32:03.671Z,5.30
2019-01-13T16:34:36.265Z,5.40
2019-01-13T16:37:05.889Z,6.53
2019-01-13T16:39:40.471Z,7.07
2019-01-13T16:42:18.497Z,7.80
2019-01-13T16:44:56.498Z,6.67
2019-01-13T16:47:33.861Z,6.63
2019-01-13T16:50:15.853Z,5.70
2019-01-13T16:52:47.972Z,6.12
2019-01-13T16:55:18.241Z,5.13
2019-01-13T16:57:48.091Z,6.87
2019-01-13T17:00:23.470Z,6.83
2019-01-13T17:02:57.366Z,8.67
2019-01-13T17:05:28.374Z,6.23
2019-01-13T17:08:01.534Z,7.93
2019-01-13T17:10:32.382Z,5.57
2019-01-13T17:13:08.003Z,4.73
2019-01-13T17:15:42.359Z,5.23
2019-01-13T17:18:16.570Z,4.77
2019-01-13T17:20:56.473Z,6.87
2019-01-13T17:23:27.211Z,6.30
2019-01-13T17:26:09.401Z,6.20
2019-01-13T17:28:44.032Z,5.20
2019-01-13T17:31:14.575Z,7.20
2019-01-13T17:33:45.543Z,7.30
2019-01-13T17:36:25.731Z,6.27
2019-01-13T17:38:59.931Z,4.53
2019-01-13T17:41:36.756Z,5.70
2019-01-13T17:44:09.595Z,4.93
2019-01-13T17:46:41.009Z,5.90
2019-01-13T17:49:17.601Z,5.10
2019-01-13T17:51:49.205Z,4.90
2019-01-13T17:54:20.515Z,4.10
2019-01-13T17:56:51.392Z,4.60
2019-01-13T17:59:23.741Z,4.17
2019-01-13T18:02:20.655Z,4.13
2019-01-13T18:05:03.088Z,5.13
2019-01-13T18:07:44.209Z,4.70
2019-01-13T18:10:15.143Z,7.43
2019-01-13T18:12:46.776Z,4.50
2019-01-13T18:15:17.244Z,5.30
2019-01-13T18:17:48.251Z,4.47
2019-01-13T18:20:29.987Z,4.10
2019-01-13T18:23:00.508Z,4.92
2019-01-13T18:25:33.754Z,4.57
2019-01-13T18:28:07.457Z,4.90
2019-01-13T18:31:01.418Z,4.33
2019-01-13T18:33:35.114Z,4.50
2019-01-13T18:36:09.528Z,4.20
2019-01-13T18:41:19.548Z,4.63
2019-01-13T18:43:50.096Z,4.93
2019-01-13T18:46:20.684Z,6.87
2019-01-13T18:48:50.493Z,4.20
2019-01-13T18:51:27.751Z,4.30
2019-01-13T18:54:02.345Z,4.67
2019-01-13T18:56:32.569Z,4.70
2019-01-13T18:59:05.884Z,5.37
2019-01-13T19:01:38.524Z,4.50
2019-01-13T19:04:21.075Z,4.50
2019-01-13T19:06:53.910Z,7.03
2019-01-13T19:09:25.654Z,6.00
2019-01-13T19:23:36.940Z,4.83
2019-01-13T19:26:12.338Z,4.63
2019-01-13T19:28:44.869Z,5.57
2019-01-13T19:31:16.659Z,4.20
2019-01-13T19:34:09.881Z,4.70
2019-01-13T19:36:40.975Z,4.87
2019-01-13T19:39:18.419Z,4.53
2019-01-13T19:41:57.847Z,4.87
2019-01-13T19:44:29.857Z,5.00
2019-01-13T19:47:04.802Z,4.70
2019-01-13T19:49:41.447Z,4.20
2019-01-13T19:52:18.074Z,4.67
2019-01-13T19:55:06.818Z,4.73
2019-01-13T19:57:36.879Z,4.20
2019-01-13T20:00:22.066Z,4.20
2019-01-13T20:02:59.674Z,3.90
2019-01-13T20:05:36.026Z,4.47
2019-01-13T20:08:15.066Z,4.57
2019-01-13T20:10:46.240Z,4.27
2019-01-13T20:13:16.892Z,8.50
2019-01-13T20:16:01.700Z,5.03
2019-01-13T20:18:43.040Z,5.50
2019-01-13T20:21:15.337Z,5.10
2019-01-13T20:23:45.483Z,5.57
2019-01-13T20:26:21.668Z,4.70
2019-01-13T20:28:57.979Z,5.30
2019-01-13T20:31:29.081Z,4.50
2019-01-13T20:34:01.285Z,5.27
2019-01-13T20:36:43.584Z,5.20
2019-01-13T20:39:15.481Z,5.43
2019-01-13T20:41:55.141Z,5.27
2019-01-13T20:44:26.680Z,5.30
2019-01-13T20:47:01.603Z,5.13
2019-01-13T20:49:57.404Z,5.90
2019-01-13T20:52:34.648Z,4.50
2019-01-13T20:55:07.841Z,6.20
2019-01-13T20:57:43.274Z,4.87
2019-01-13T21:00:26.179Z,5.20
2019-01-13T21:02:54.004Z,6.00
2019-01-13T21:05:27.262Z,4.40
2019-01-13T21:07:58.593Z,4.65
2019-01-13T21:10:43.735Z,4.73
2019-01-13T21:13:16.258Z,5.43
2019-01-13T21:16:08.056Z,6.20
2019-01-13T21:19:02.477Z,6.03
2019-01-13T21:21:41.273Z,4.83
2019-01-13T21:24:25.563Z,5.67
2019-01-13T21:26:58.309Z,5.63
2019-01-13T21:29:31.943Z,4.63
2019-01-13T21:32:03.478Z,6.57
2019-01-13T21:34:40.359Z,6.17
2019-01-13T21:37:18.731Z,4.93
2019-01-13T21:39:52.492Z,7.13
2019-01-13T21:42:32.179Z,7.60
2019-01-13T21:45:04.548Z,6.40
2019-01-13T21:47:35.909Z,9.80
2019-01-13T21:50:28.367Z,6.67
2019-01-13T21:52:58.923Z,5.90
2019-01-13T21:55:29.790Z,5.80
2019-01-13T21:58:00.414Z,6.60
2019-01-13T22:00:42.092Z,7.70
2019-01-13T22:03:12.656Z,6.93
2019-01-13T22:05:42.682Z,6.43
2019-01-13T22:08:13.978Z,6.03
2019-01-13T22:10:44.625Z,7.77
2019-01-13T22:13:15.982Z,6.72
2019-01-13T22:15:49.335Z,5.97
2019-01-13T22:18:23.442Z,7.30
2019-01-13T22:20:57.956Z,6.80
2019-01-13T22:23:30.965Z,6.80
2019-01-13T22:26:07.775Z,8.60
2019-01-13T22:28:38.998Z,7.73
2019-01-13T22:31:23.242Z,6.47
2019-01-13T22:33:56.082Z,7.42
2019-01-13T22:36:41.489Z,10.07
2019-01-13T22:39:11.903Z,7.13
2019-01-13T22:41:50.720Z,6.43
2019-01-13T22:44:21.127Z,8.50
2019-01-13T22:51:50.520Z,6.63
2019-01-13T23:02:09.485Z,9.57
2019-01-13T23:09:00.544Z,6.40
2019-01-13T23:11:56.654Z,6.47
2019-01-13T23:14:29.821Z,5.60
2019-01-13T23:26:29.475Z,5.80
2019-01-13T23:28:59.484Z,7.73
2019-01-13T23:31:36.978Z,5.97
2019-01-13T23:34:07.126Z,5.93
2019-01-13T23:36:37.281Z,6.60
2019-01-13T23:39:09.644Z,8.17
2019-01-13T23:41:40.619Z,6.37
2019-01-13T23:44:13.093Z,7.00
2019-01-13T23:46:43.354Z,5.40
2019-01-13T23:49:21.511Z,6.43
2019-01-13T23:51:51.483Z,5.50
2019-01-13T23:54:25.704Z,4.57
2019-01-13T23:56:56.032Z,7.90
2019-01-13T23:59:27.548Z,5.53
